createdAt,value
2023-04-17T00:02:11.151Z,99258.97
2023-04-17T00:04:41.131Z,99262.84
2023-04-17T00:07:09.477Z,99266.94
2023-04-17T00:09:36.906Z,99265.28
2023-04-17T00:12:04.743Z,99266.97
2023-04-17T00:14:32.184Z,99270.44
2023-04-17T00:16:59.543Z,99267.31
2023-04-17T00:19:27.241Z,99269.22
2023-04-17T00:21:54.634Z,99271.03
2023-04-17T00:24:22.047Z,99264.88
2023-04-17T00:26:49.791Z,99256.31
2023-04-17T00:29:17.267Z,99257.91
2023-04-17T00:31:44.720Z,99247.22
2023-04-17T00:34:12.400Z,99250.41
2023-04-17T00:36:39.961Z,99248.56
2023-04-17T00:39:07.379Z,99242.00
2023-04-17T00:41:35.047Z,99256.03
2023-04-17T00:44:02.439Z,99252.16
2023-04-17T00:46:30.717Z,99253.84
2023-04-17T00:48:58.435Z,99257.06
2023-04-17T00:51:25.866Z,99259.41
2023-04-17T00:53:53.839Z,99246.78
2023-04-17T00:56:21.717Z,99250.06
2023-04-17T00:58:49.163Z,99247.00
2023-04-17T01:01:17.956Z,99250.12
2023-04-17T01:03:46.262Z,99250.75
2023-04-17T01:06:13.937Z,99248.03
2023-04-17T01:08:43.856Z,99244.00
2023-04-17T01:11:13.025Z,99248.56
2023-04-17T01:13:52.464Z,99251.84
2023-04-17T01:16:20.830Z,99239.66
2023-04-17T01:18:48.426Z,99245.41
2023-04-17T01:21:16.655Z,99241.34
2023-04-17T01:23:52.101Z,99239.72
2023-04-17T01:26:23.864Z,99248.47
2023-04-17T01:28:54.031Z,99240.00
2023-04-17T01:31:22.507Z,99241.31
2023-04-17T01:33:50.700Z,99238.81
2023-04-17T01:36:18.995Z,99240.66
2023-04-17T01:38:46.468Z,99231.94
2023-04-17T01:41:13.911Z,99230.09
2023-04-17T01:43:46.984Z,99233.34
2023-04-17T01:46:14.421Z,99232.69
2023-04-17T01:48:42.177Z,99232.91
2023-04-17T01:51:09.621Z,99236.31
2023-04-17T01:53:39.005Z,99240.75
2023-04-17T01:56:07.128Z,99236.19
2023-04-17T01:58:35.511Z,99241.34
2023-04-17T02:01:03.005Z,99236.91
2023-04-17T02:03:31.504Z,99240.69
2023-04-17T02:05:59.109Z,99228.22
2023-04-17T02:08:27.162Z,99230.41
2023-04-17T02:10:54.897Z,99229.56
2023-04-17T02:13:22.325Z,99231.13
2023-04-17T02:15:49.764Z,99231.75
2023-04-17T02:18:17.581Z,99237.16
2023-04-17T02:20:45.287Z,99232.91
2023-04-17T02:23:12.834Z,99238.59
2023-04-17T02:25:40.268Z,99241.25
2023-04-17T02:28:07.939Z,99235.28
2023-04-17T02:30:35.428Z,99230.53
2023-04-17T02:33:02.867Z,99227.16
2023-04-17T02:35:31.772Z,99223.37
2023-04-17T02:37:59.590Z,99222.34
2023-04-17T02:40:27.396Z,99219.09
2023-04-17T02:42:55.502Z,99218.78
2023-04-17T02:45:22.874Z,99216.03
2023-04-17T02:47:50.564Z,99216.31
2023-04-17T02:50:18.446Z,99207.38
2023-04-17T02:52:47.086Z,99216.31
2023-04-17T02:55:14.498Z,99213.66
2023-04-17T02:57:42.176Z,99222.22
2023-04-17T03:00:14.138Z,99221.06
2023-04-17T03:02:42.208Z,99221.16
2023-04-17T03:05:11.571Z,99221.38
2023-04-17T03:07:38.987Z,99227.94
2023-04-17T03:10:08.560Z,99237.53
2023-04-17T03:12:36.161Z,99234.62
2023-04-17T03:15:03.747Z,99233.59
2023-04-17T03:17:31.454Z,99239.84
2023-04-17T03:19:59.749Z,99242.44
2023-04-17T03:22:27.193Z,99237.28
2023-04-17T03:24:54.942Z,99229.91
2023-04-17T03:27:24.749Z,99236.56
2023-04-17T03:29:54.592Z,99239.66
2023-04-17T03:32:22.632Z,99238.09
2023-04-17T03:34:50.197Z,99237.97
2023-04-17T03:37:17.658Z,99234.44
2023-04-17T03:39:45.452Z,99231.19
2023-04-17T03:42:14.709Z,99241.16
2023-04-17T03:44:42.310Z,99244.13
2023-04-17T03:47:11.675Z,99237.63
2023-04-17T03:49:40.957Z,99237.84
2023-04-17T03:52:08.335Z,99237.66
2023-04-17T03:54:36.018Z,99238.81
2023-04-17T03:57:04.068Z,99240.34
2023-04-17T03:59:31.854Z,99238.31
2023-04-17T04:01:59.819Z,99238.94
2023-04-17T04:04:28.194Z,99242.22
2023-04-17T04:06:58.042Z,99242.75
2023-04-17T04:09:26.179Z,99250.06
2023-04-17T04:11:53.962Z,99246.69
2023-04-17T04:14:21.446Z,99243.31
2023-04-17T04:16:49.244Z,99259.16
2023-04-17T04:19:17.213Z,99262.22
2023-04-17T04:21:45.142Z,99260.66
2023-04-17T04:24:14.356Z,99251.97
2023-04-17T04:26:43.141Z,99263.63
2023-04-17T04:29:11.850Z,99258.41
2023-04-17T04:31:40.691Z,99255.81
2023-04-17T04:34:09.729Z,99265.06
2023-04-17T04:36:41.959Z,99257.78
2023-04-17T04:39:10.268Z,99266.12
2023-04-17T04:41:38.372Z,99269.81
2023-04-17T04:44:06.029Z,99280.03
2023-04-17T04:46:34.915Z,99279.19
2023-04-17T04:49:03.118Z,99279.75
2023-04-17T04:51:32.101Z,99287.97
2023-04-17T04:53:59.846Z,99286.44
2023-04-17T04:56:30.431Z,99287.38
2023-04-17T04:58:59.118Z,99291.09
2023-04-17T05:01:28.009Z,99288.53
2023-04-17T05:03:56.108Z,99295.41
2023-04-17T05:06:25.134Z,99289.41
2023-04-17T05:08:53.587Z,99293.72
2023-04-17T05:11:21.311Z,99301.38
2023-04-17T05:13:48.848Z,99295.56
2023-04-17T05:16:17.576Z,99294.41
2023-04-17T05:18:48.020Z,99301.56
2023-04-17T05:21:15.975Z,99300.03
2023-04-17T05:23:44.155Z,99298.25
2023-04-17T05:26:11.800Z,99297.56
2023-04-17T05:28:40.994Z,99293.94
2023-04-17T05:31:08.938Z,99298.75
2023-04-17T05:33:36.769Z,99302.06
2023-04-17T05:36:06.144Z,99303.09
2023-04-17T05:38:34.557Z,99298.09
2023-04-17T05:41:08.379Z,99304.34
2023-04-17T05:43:37.669Z,99302.59
2023-04-17T05:46:06.010Z,99304.59
2023-04-17T05:48:34.217Z,99306.78
2023-04-17T05:51:03.190Z,99304.12
2023-04-17T05:53:33.259Z,99300.59
2023-04-17T05:56:01.803Z,99305.88
2023-04-17T05:58:30.522Z,99305.81
2023-04-17T06:00:58.488Z,99306.66
2023-04-17T06:03:27.168Z,99311.44
2023-04-17T06:05:57.244Z,99308.22
2023-04-17T06:08:26.140Z,99311.81
2023-04-17T06:10:56.014Z,99307.63
2023-04-17T06:13:24.483Z,99310.69
2023-04-17T06:15:52.397Z,99314.91
2023-04-17T06:18:20.113Z,99309.03
2023-04-17T06:20:47.737Z,99320.84
2023-04-17T06:23:15.578Z,99321.03
2023-04-17T06:25:43.281Z,99314.59
2023-04-17T06:28:10.740Z,99316.13
2023-04-17T06:30:38.370Z,99321.88
2023-04-17T06:33:07.287Z,99326.28
2023-04-17T06:35:35.372Z,99318.66
2023-04-17T06:38:03.458Z,99326.94
2023-04-17T06:40:31.579Z,99320.16
2023-04-17T06:42:59.039Z,99331.50
2023-04-17T06:45:28.180Z,99332.69
2023-04-17T06:47:56.809Z,99332.34
2023-04-17T06:50:24.374Z,99336.06
2023-04-17T06:52:51.877Z,99340.63
2023-04-17T06:55:19.523Z,99342.03
2023-04-17T06:57:46.881Z,99337.63
2023-04-17T07:00:14.855Z,99336.91
2023-04-17T07:02:42.629Z,99344.19
2023-04-17T07:05:10.430Z,99345.56
2023-04-17T07:07:37.904Z,99345.81
2023-04-17T07:10:06.855Z,99337.41
2023-04-17T07:12:34.261Z,99351.72
2023-04-17T07:15:01.822Z,99344.53
2023-04-17T07:17:29.643Z,99344.53
2023-04-17T07:19:57.119Z,99344.38
2023-04-17T07:22:26.605Z,99346.72
2023-04-17T07:24:55.224Z,99344.19
2023-04-17T07:27:22.655Z,99347.22
2023-04-17T07:29:54.630Z,99339.13
2023-04-17T07:32:24.382Z,99340.97
2023-04-17T07:34:52.086Z,99337.25
2023-04-17T07:37:19.682Z,99348.91
2023-04-17T07:39:50.886Z,99343.50
2023-04-17T07:42:18.363Z,99343.00
2023-04-17T07:44:46.384Z,99344.44
2023-04-17T07:47:14.319Z,99353.44
2023-04-17T07:49:41.877Z,99356.22
2023-04-17T07:52:09.292Z,99355.66
2023-04-17T07:54:36.943Z,99359.75
2023-04-17T07:57:04.473Z,99361.09
2023-04-17T07:59:31.861Z,99361.13
2023-04-17T08:01:59.746Z,99357.56
2023-04-17T08:04:27.619Z,99360.75
2023-04-17T08:06:55.347Z,99354.69
2023-04-17T08:09:22.778Z,99363.09
2023-04-17T08:11:57.599Z,99362.47
2023-04-17T08:14:25.677Z,99354.53
2023-04-17T08:16:53.485Z,99362.41
2023-04-17T08:19:21.004Z,99357.88
2023-04-17T08:21:48.850Z,99362.56
2023-04-17T08:24:19.797Z,99367.06
2023-04-17T08:26:47.898Z,99370.91
2023-04-17T08:29:15.873Z,99355.91
2023-04-17T08:31:43.432Z,99364.88
2023-04-17T08:34:14.956Z,99368.47
2023-04-17T08:36:43.417Z,99369.69
2023-04-17T08:39:12.426Z,99358.88
2023-04-17T08:41:48.053Z,99364.97
2023-04-17T08:44:20.214Z,99359.66
2023-04-17T08:46:48.518Z,99367.56
2023-04-17T08:49:16.789Z,99358.53
2023-04-17T08:51:44.266Z,99358.22
2023-04-17T08:54:11.757Z,99354.47
2023-04-17T08:56:39.422Z,99357.12
2023-04-17T08:59:06.848Z,99345.13
2023-04-17T09:01:34.978Z,99349.34
2023-04-17T09:04:02.891Z,99356.53
2023-04-17T09:06:48.780Z,99357.69
2023-04-17T09:09:16.568Z,99345.47
2023-04-17T09:11:43.990Z,99359.44
2023-04-17T09:14:30.412Z,99352.22
2023-04-17T09:16:58.157Z,99349.28
2023-04-17T09:19:25.965Z,99355.66
2023-04-17T09:21:54.766Z,99349.16
2023-04-17T09:24:43.010Z,99352.63
2023-04-17T09:27:27.071Z,99352.87
2023-04-17T09:30:03.599Z,99350.06
2023-04-17T09:32:33.543Z,99351.78
2023-04-17T09:35:03.594Z,99348.47
2023-04-17T09:37:52.036Z,99349.91
2023-04-17T09:40:22.906Z,99349.50
2023-04-17T09:43:01.262Z,99344.84
2023-04-17T09:45:35.615Z,99349.44
2023-04-17T09:48:07.803Z,99339.72
2023-04-17T09:50:37.304Z,99350.72
2023-04-17T09:53:07.379Z,99339.81
2023-04-17T09:55:37.020Z,99335.19
2023-04-17T09:58:06.399Z,99334.03
2023-04-17T10:00:33.970Z,99339.59
2023-04-17T10:03:01.893Z,99339.94
2023-04-17T10:05:31.605Z,99330.09
2023-04-17T10:07:59.141Z,99327.94
2023-04-17T10:10:32.408Z,99326.66
2023-04-17T10:13:03.102Z,99319.56
2023-04-17T10:15:31.286Z,99323.34
2023-04-17T10:18:19.987Z,99322.25
2023-04-17T10:20:50.208Z,99319.41
2023-04-17T10:23:32.874Z,99309.81
2023-04-17T10:26:25.363Z,99304.53
2023-04-17T10:28:54.325Z,99317.59
2023-04-17T10:31:23.656Z,99312.84
2023-04-17T10:33:52.761Z,99318.62
2023-04-17T10:36:40.782Z,99311.66
2023-04-17T10:39:20.588Z,99314.59
2023-04-17T10:42:04.945Z,99312.97
2023-04-17T10:44:35.974Z,99318.53
2023-04-17T10:47:07.596Z,99318.03
2023-04-17T10:50:08.658Z,99307.19
2023-04-17T10:52:42.162Z,99305.75
2023-04-17T10:55:15.986Z,99311.09
2023-04-17T10:57:58.753Z,99297.34
2023-04-17T11:00:37.337Z,99314.28
2023-04-17T11:03:06.227Z,99305.69
2023-04-17T11:05:35.929Z,99313.84
2023-04-17T11:08:03.599Z,99305.97
2023-04-17T11:10:35.704Z,99301.41
2023-04-17T11:13:03.107Z,99304.50
2023-04-17T11:15:32.289Z,99305.13
2023-04-17T11:18:00.692Z,99309.00
2023-04-17T11:20:30.190Z,99305.59
2023-04-17T11:23:02.445Z,99302.25
2023-04-17T11:25:31.751Z,99303.56
2023-04-17T11:28:05.763Z,99309.34
2023-04-17T11:30:35.609Z,99311.81
2023-04-17T11:33:05.217Z,99306.22
2023-04-17T11:35:37.443Z,99299.09
2023-04-17T11:38:22.190Z,99307.91
2023-04-17T11:40:54.950Z,99300.13
2023-04-17T11:43:23.639Z,99301.97
2023-04-17T11:45:58.413Z,99294.09
2023-04-17T11:48:27.172Z,99302.50
2023-04-17T11:51:06.456Z,99297.50
2023-04-17T11:53:35.394Z,99298.41
2023-04-17T11:56:16.094Z,99294.50
2023-04-17T11:58:47.588Z,99300.94
2023-04-17T12:01:15.467Z,99301.16
2023-04-17T12:03:45.457Z,99302.25
2023-04-17T12:06:13.612Z,99308.75
2023-04-17T12:08:47.919Z,99311.78
2023-04-17T12:11:35.947Z,99317.31
2023-04-17T12:14:05.545Z,99305.31
2023-04-17T12:16:33.367Z,99306.00
2023-04-17T12:19:00.980Z,99307.06
2023-04-17T12:21:28.460Z,99311.22
2023-04-17T12:23:56.167Z,99311.22
2023-04-17T12:26:25.284Z,99306.34
2023-04-17T12:28:52.750Z,99296.75
2023-04-17T12:31:20.481Z,99295.84
2023-04-17T12:33:47.946Z,99291.69
2023-04-17T12:36:15.492Z,99288.16
2023-04-17T12:38:43.148Z,99285.56
2023-04-17T12:41:10.769Z,99292.19
2023-04-17T12:43:38.281Z,99289.00
2023-04-17T12:46:06.100Z,99284.13
2023-04-17T12:48:34.104Z,99283.03
2023-04-17T12:51:01.661Z,99281.12
2023-04-17T12:53:30.056Z,99276.81
2023-04-17T12:55:57.646Z,99269.16
2023-04-17T12:58:25.473Z,99271.50
2023-04-17T13:00:53.133Z,99269.50
2023-04-17T13:03:20.900Z,99263.31
2023-04-17T13:05:49.014Z,99269.34
2023-04-17T13:08:16.652Z,99264.16
2023-04-17T13:10:44.177Z,99261.00
2023-04-17T13:13:11.623Z,99255.88
2023-04-17T13:15:39.401Z,99259.34
2023-04-17T13:18:08.162Z,99253.66
2023-04-17T13:20:35.890Z,99249.97
2023-04-17T13:23:03.588Z,99247.59
2023-04-17T13:25:32.167Z,99244.88
2023-04-17T13:28:00.209Z,99241.47
2023-04-17T13:30:27.959Z,99243.03
2023-04-17T13:32:55.519Z,99231.59
2023-04-17T13:35:22.965Z,99235.41
2023-04-17T13:37:50.605Z,99228.50
2023-04-17T13:40:18.029Z,99236.34
2023-04-17T13:42:45.381Z,99239.31
2023-04-17T13:45:13.408Z,99238.22
2023-04-17T13:47:40.888Z,99236.22
2023-04-17T13:50:09.101Z,99231.53
2023-04-17T13:52:36.786Z,99241.53
2023-04-17T13:55:04.481Z,99240.88
2023-04-17T13:57:31.935Z,99248.38
2023-04-17T13:59:59.622Z,99245.31
2023-04-17T14:02:27.157Z,99253.25
2023-04-17T14:04:55.387Z,99254.06
2023-04-17T14:07:22.930Z,99263.84
2023-04-17T14:09:50.287Z,99259.13
2023-04-17T14:12:20.874Z,99260.06
2023-04-17T14:14:48.309Z,99258.75
2023-04-17T14:17:15.959Z,99259.25
2023-04-17T14:19:43.662Z,99264.81
2023-04-17T14:22:11.312Z,99263.84
2023-04-17T14:24:38.712Z,99257.25
2023-04-17T14:27:06.403Z,99252.84
2023-04-17T14:29:33.798Z,99251.50
2023-04-17T14:32:01.279Z,99255.31
2023-04-17T14:34:29.572Z,99252.25
2023-04-17T14:36:58.160Z,99251.06
2023-04-17T14:39:25.776Z,99241.41
2023-04-17T14:41:53.595Z,99244.00
2023-04-17T14:44:21.121Z,99244.25
2023-04-17T14:46:48.833Z,99238.97
2023-04-17T14:49:17.018Z,99247.03
2023-04-17T14:51:44.384Z,99240.72
2023-04-17T14:54:11.810Z,99242.12
2023-04-17T14:56:39.913Z,99243.69
2023-04-17T14:59:07.329Z,99247.59
2023-04-17T15:01:34.915Z,99243.03
2023-04-17T15:04:03.758Z,99243.38
2023-04-17T15:06:31.296Z,99242.97
2023-04-17T15:08:58.672Z,99246.03
2023-04-17T15:11:26.479Z,99241.19
2023-04-17T15:13:53.852Z,99249.44
2023-04-17T15:16:21.297Z,99249.31
2023-04-17T15:18:49.613Z,99243.84
2023-04-17T15:21:17.387Z,99247.56
2023-04-17T15:23:45.087Z,99261.34
2023-04-17T15:26:13.051Z,99250.47
2023-04-17T15:28:40.586Z,99253.87
2023-04-17T15:31:08.048Z,99253.09
2023-04-17T15:33:36.321Z,99256.13
2023-04-17T15:36:03.805Z,99251.38
2023-04-17T15:38:31.180Z,99249.91
2023-04-17T15:40:59.163Z,99248.91
2023-04-17T15:43:27.036Z,99245.87
2023-04-17T15:45:54.758Z,99252.91
2023-04-17T15:48:22.479Z,99243.38
2023-04-17T15:50:49.912Z,99248.38
2023-04-17T15:53:17.324Z,99247.44
2023-04-17T15:55:45.015Z,99249.03
2023-04-17T15:58:12.375Z,99248.28
2023-04-17T16:00:39.896Z,99249.50
2023-04-17T16:03:08.065Z,99249.59
2023-04-17T16:05:35.718Z,99251.84
2023-04-17T16:08:03.107Z,99246.22
2023-04-17T16:10:31.005Z,99252.09
2023-04-17T16:12:58.393Z,99250.81
2023-04-17T16:15:25.903Z,99243.22
2023-04-17T16:17:53.620Z,99252.13
2023-04-17T16:20:21.032Z,99252.31
2023-04-17T16:22:48.463Z,99245.75
2023-04-17T16:25:16.463Z,99250.53
2023-04-17T16:27:44.077Z,99249.50
2023-04-17T16:30:11.694Z,99247.09
2023-04-17T16:32:39.482Z,99245.66
2023-04-17T16:35:07.526Z,99243.69
2023-04-17T16:37:34.928Z,99251.41
2023-04-17T16:40:05.161Z,99252.34
2023-04-17T16:42:32.766Z,99253.34
2023-04-17T16:45:00.377Z,99245.22
2023-04-17T16:47:31.377Z,99252.75
2023-04-17T16:49:59.018Z,99253.19
2023-04-17T16:52:26.442Z,99259.81
2023-04-17T16:54:54.175Z,99259.47
2023-04-17T16:57:21.720Z,99251.09
2023-04-17T16:59:49.320Z,99255.47
2023-04-17T17:02:17.013Z,99253.13
2023-04-17T17:04:45.817Z,99263.31
2023-04-17T17:07:13.503Z,99255.50
2023-04-17T17:09:41.223Z,99264.09
2023-04-17T17:12:08.611Z,99257.62
2023-04-17T17:14:36.208Z,99266.72
2023-04-17T17:17:03.908Z,99261.03
2023-04-17T17:19:31.352Z,99258.94
2023-04-17T17:21:58.763Z,99263.13
2023-04-17T17:24:26.757Z,99271.63
2023-04-17T17:26:54.247Z,99266.69
2023-04-17T17:29:21.761Z,99268.94
2023-04-17T17:31:49.557Z,99267.59
2023-04-17T17:34:26.056Z,99271.34
2023-04-17T17:36:54.990Z,99267.19
2023-04-17T17:39:22.545Z,99266.88
2023-04-17T17:41:50.018Z,99258.88
2023-04-17T17:44:17.736Z,99261.28
2023-04-17T17:46:45.295Z,99269.50
2023-04-17T17:49:12.954Z,99268.28
2023-04-17T17:51:41.850Z,99265.97
2023-04-17T17:54:09.592Z,99275.34
2023-04-17T17:56:37.177Z,99271.03
2023-04-17T17:59:04.913Z,99270.75
2023-04-17T18:01:32.685Z,99272.69
2023-04-17T18:04:00.611Z,99276.16
2023-04-17T18:06:28.564Z,99277.78
2023-04-17T18:08:57.917Z,99280.78
2023-04-17T18:11:25.842Z,99281.50
2023-04-17T18:13:53.260Z,99283.69
2023-04-17T18:16:21.037Z,99283.97
2023-04-17T18:18:48.791Z,99278.19
2023-04-17T18:21:16.177Z,99284.28
2023-04-17T18:23:43.638Z,99287.16
2023-04-17T18:26:12.947Z,99290.31
2023-04-17T18:28:40.692Z,99289.38
2023-04-17T18:31:08.220Z,99297.94
2023-04-17T18:33:36.288Z,99299.44
2023-04-17T18:36:04.670Z,99291.13
2023-04-17T18:38:32.270Z,99299.50
2023-04-17T18:41:01.290Z,99303.81
2023-04-17T18:43:29.133Z,99296.47
2023-04-17T18:45:56.791Z,99294.72
2023-04-17T18:48:24.679Z,99303.81
2023-04-17T18:50:52.221Z,99301.16
2023-04-17T18:53:19.773Z,99307.78
2023-04-17T18:55:47.467Z,99310.81
2023-04-17T18:58:15.026Z,99305.47
2023-04-17T19:00:42.395Z,99303.62
2023-04-17T19:03:10.371Z,99313.72
2023-04-17T19:05:37.986Z,99310.78
2023-04-17T19:08:05.516Z,99312.28
2023-04-17T19:10:33.700Z,99307.87
2023-04-17T19:13:01.482Z,99304.81
2023-04-17T19:15:29.105Z,99309.69
2023-04-17T19:17:56.959Z,99315.37
2023-04-17T19:20:24.578Z,99310.88
2023-04-17T19:22:52.088Z,99309.91
2023-04-17T19:25:19.926Z,99314.81
2023-04-17T19:27:47.308Z,99315.94
2023-04-17T19:30:14.810Z,99315.22
2023-04-17T19:32:42.867Z,99322.87
2023-04-17T19:35:10.632Z,99310.62
2023-04-17T19:37:38.155Z,99322.59
2023-04-17T19:40:14.160Z,99328.28
2023-04-17T19:42:49.521Z,99316.63
2023-04-17T19:45:17.488Z,99315.03
2023-04-17T19:47:45.214Z,99318.16
2023-04-17T19:50:12.832Z,99318.50
2023-04-17T19:52:43.085Z,99310.53
2023-04-17T19:55:10.654Z,99313.09
2023-04-17T19:57:39.202Z,99307.16
2023-04-17T20:00:07.647Z,99302.31
2023-04-17T20:02:40.565Z,99301.75
2023-04-17T20:05:09.071Z,99292.47
2023-04-17T20:07:37.170Z,99295.50
2023-04-17T20:10:05.395Z,99298.69
2023-04-17T20:12:33.245Z,99289.25
2023-04-17T20:15:00.864Z,99297.00
2023-04-17T20:17:28.418Z,99291.75
2023-04-17T20:19:56.142Z,99293.63
2023-04-17T20:22:23.702Z,99300.25
2023-04-17T20:24:51.311Z,99300.25
2023-04-17T20:27:19.213Z,99296.62
2023-04-17T20:29:46.772Z,99295.88
2023-04-17T20:32:14.174Z,99302.78
2023-04-17T20:34:41.818Z,99301.56
2023-04-17T20:37:09.582Z,99307.84
2023-04-17T20:39:37.012Z,99310.16
2023-04-17T20:42:04.917Z,99311.03
2023-04-17T20:44:32.898Z,99314.78
2023-04-17T20:47:00.265Z,99318.16
2023-04-17T20:49:28.303Z,99317.97
2023-04-17T20:51:55.818Z,99324.22
2023-04-17T20:54:23.405Z,99325.25
2023-04-17T20:56:51.193Z,99323.03
2023-04-17T20:59:18.671Z,99326.31
2023-04-17T21:01:46.201Z,99323.84
2023-04-17T21:04:14.183Z,99329.91
2023-04-17T21:06:41.931Z,99327.53
2023-04-17T21:09:09.716Z,99334.91
2023-04-17T21:11:37.445Z,99334.28
2023-04-17T21:14:04.888Z,99332.53
2023-04-17T21:16:32.340Z,99332.19
2023-04-17T21:19:00.167Z,99336.50
2023-04-17T21:21:27.567Z,99333.94
2023-04-17T21:23:54.941Z,99339.06
2023-04-17T21:26:22.668Z,99331.59
2023-04-17T21:28:50.046Z,99327.19
2023-04-17T21:31:17.493Z,99327.22
2023-04-17T21:33:45.452Z,99325.31
2023-04-17T21:36:13.992Z,99334.97
2023-04-17T21:38:41.466Z,99331.59
2023-04-17T21:41:09.306Z,99329.69
2023-04-17T21:43:36.661Z,99328.25
2023-04-17T21:46:04.313Z,99332.25
2023-04-17T21:48:31.988Z,99330.84
2023-04-17T21:51:04.029Z,99326.59
2023-04-17T21:53:36.312Z,99328.28
2023-04-17T21:56:06.279Z,99337.87
2023-04-17T21:58:34.779Z,99340.94
2023-04-17T22:01:03.178Z,99328.47
2023-04-17T22:03:30.902Z,99332.53
2023-04-17T22:05:58.292Z,99330.47
2023-04-17T22:08:25.681Z,99329.66
2023-04-17T22:10:53.327Z,99338.41
2023-04-17T22:13:20.737Z,99327.78
2023-04-17T22:15:49.253Z,99329.31
2023-04-17T22:18:17.060Z,99333.22
2023-04-17T22:20:44.598Z,99333.03
2023-04-17T22:23:11.987Z,99328.97
2023-04-17T22:25:39.653Z,99332.34
2023-04-17T22:28:07.405Z,99327.78
2023-04-17T22:30:34.832Z,99334.06
2023-04-17T22:33:03.238Z,99344.66
2023-04-17T22:35:30.770Z,99337.31
2023-04-17T22:37:58.307Z,99338.37
2023-04-17T22:40:26.050Z,99343.16
2023-04-17T22:42:53.458Z,99344.50
2023-04-17T22:45:20.861Z,99346.22
2023-04-17T22:47:48.541Z,99337.75
2023-04-17T22:50:17.595Z,99346.06
2023-04-17T22:52:45.023Z,99347.25
2023-04-17T22:55:12.766Z,99344.53
2023-04-17T22:57:40.685Z,99339.47
2023-04-17T23:00:09.833Z,99349.59
2023-04-17T23:02:37.843Z,99350.94
2023-04-17T23:05:06.445Z,99352.66
2023-04-17T23:07:33.909Z,99349.81
2023-04-17T23:10:01.611Z,99351.47
2023-04-17T23:12:29.032Z,99351.28
2023-04-17T23:14:57.814Z,99354.16
2023-04-17T23:17:25.493Z,99353.03
2023-04-17T23:19:53.333Z,99352.47
2023-04-17T23:22:20.839Z,99353.50
2023-04-17T23:24:48.736Z,99347.41
2023-04-17T23:27:16.127Z,99352.66
2023-04-17T23:29:43.548Z,99346.56
2023-04-17T23:32:11.215Z,99344.53
2023-04-17T23:34:38.676Z,99347.94
2023-04-17T23:37:06.194Z,99339.09
2023-04-17T23:39:34.866Z,99341.47
2023-04-17T23:42:07.236Z,99343.91
2023-04-17T23:44:35.647Z,99339.06
2023-04-17T23:47:03.641Z,99343.78
2023-04-17T23:49:31.173Z,99335.12
2023-04-17T23:51:58.819Z,99333.81
2023-04-17T23:54:26.268Z,99336.16
2023-04-17T23:56:53.888Z,99335.75
2023-04-17T23:59:21.596Z,99335.50
